Time;durP1;ratioP1;P1;durP2;ratioP2;P2;SDS_P1;SDS_P2;PMS_P1;PMS_P2;Temp;Humidity;BMP_temperature;BMP_pressure;BME280_temperature;BME280_humidity;BME280_pressure;Samples;Min_cycle;Max_cycle;Signal;HPM_P1;HPM_P2
2022/03/23 00:00:41;;;;;;;;;;;;;;;;;;;;;
2022/03/23 00:13:01;;;;;;;49.30;23.70;;;10.60;99.90;;;;;;6107878;23;20409;-91
2022/03/23 00:16:53;;;;;;;46.10;23.23;;;10.50;99.90;;;;;;6290219;22;20071;-90
2022/03/23 00:28:44;;;;;;;40.70;23.20;;;10.50;99.90;;;;;;6282576;22;20016;-90
2022/03/23 00:50:20;;;;;;;49.00;23.58;;;10.40;99.90;;;;;;6265863;22;20010;-90
2022/03/23 01:03:38;;;;;;;46.88;22.92;;;10.20;99.90;;;;;;6038504;23;20432;-90
2022/03/23 02:52:20;;;;;;;;;;;;;;;;;;;;;
2022/03/23 03:13:02;;;;;;;46.28;24.90;;;9.30;99.90;;;;;;5981221;24;20367;-91
2022/03/23 03:21:06;;;;;;;50.60;23.88;;;9.20;99.90;;;;;;5970057;24;20295;-91
2022/03/23 03:25:24;;;;;;;50.33;25.25;;;9.10;99.90;;;;;;5953641;24;20013;-91
2022/03/23 03:33:23;;;;;;;44.67;24.10;;;9.10;99.90;;;;;;5871862;24;20478;-92
2022/03/23 03:49:18;;;;;;;;;;;;;;;;;;;;;
2022/03/23 03:58:06;;;;;;;;;;;;;;;;;;;;;
2022/03/23 04:08:09;;;;;;;48.53;25.75;;;8.80;99.90;;;;;;6278692;22;20015;-91
2022/03/23 04:19:54;;;;;;;;;;;;;;;;;;;;;
2022/03/23 04:27:54;;;;;;;46.35;23.63;;;8.70;99.90;;;;;;6271525;22;20023;-92
2022/03/23 04:50:48;;;;;;;;;;;;;;;;;;;;;
2022/03/23 05:14:07;;;;;;;45.50;23.08;;;8.40;99.90;;;;;;6217208;23;20021;-89
2022/03/23 05:16:43;;;;;;;49.30;25.83;;;8.40;99.90;;;;;;6217541;23;20099;-90
2022/03/23 05:19:13;;;;;;;48.20;23.85;;;8.40;99.90;;;;;;6190633;23;20099;-92
2022/03/23 05:27:19;;;;;;;;;;;;;;;;;;;;;
2022/03/23 05:38:06;;;;;;;44.33;22.80;;;8.30;99.90;;;;;;6305805;22;20422;-92
2022/03/23 05:48:49;;;;;;;49.55;25.33;;;8.30;99.90;;;;;;6279748;22;20023;-90
2022/03/23 05:59:30;;;;;;;52.33;26.75;;;8.20;99.90;;;;;;6095228;23;20077;-89
2022/03/23 06:03:03;;;;;;;57.50;27.23;;;8.20;99.90;;;;;;6078692;23;20097;-89
2022/03/23 06:05:59;;;;;;;48.85;25.95;;;8.10;99.90;;;;;;6096231;23;20101;-90
2022/03/23 06:13:28;;;;;;;48.22;23.52;;;8.20;99.90;;;;;;6095851;23;20477;-90
2022/03/23 06:24:31;;;;;;;43.90;22.92;;;8.20;99.90;;;;;;6172691;23;20039;-90
2022/03/23 06:41:10;;;;;;;48.88;23.73;;;8.10;99.90;;;;;;6119397;23;20452;-89
2022/03/23 07:07:36;;;;;;;70.43;33.35;;;8.10;99.90;;;;;;6152044;23;20055;-90
2022/03/23 09:18:40;;;;;;;46.03;21.58;;;12.60;21.50;;;;;;6243814;22;20075;-90
2022/03/23 09:47:34;;;;;;;33.83;16.60;;;13.50;1.00;;;;;;6101202;23;20044;-91
2022/03/23 09:58:24;;;;;;;39.80;18.20;;;13.90;1.00;;;;;;6249691;22;20073;-91
2022/03/23 10:23:05;;;;;;;37.72;18.95;;;14.30;1.00;;;;;;6244988;22;20082;-90
2022/03/23 10:39:05;;;;;;;;;;;;;;;;;;;;;
2022/03/23 14:59:52;;;;;;;45.10;21.70;;;18.00;1.00;;;;;;6310862;22;20014;-91
2022/03/23 15:02:23;;;;;;;36.38;20.70;;;18.00;1.00;;;;;;6212625;22;20023;-86
2022/03/23 16:06:01;;;;;;;30.77;17.63;;;16.90;1.00;;;;;;6308580;22;20120;-94
2022/03/23 16:09:53;;;;;;;36.13;18.55;;;17.40;1.00;;;;;;6153788;23;20444;-93
2022/03/23 16:12:51;;;;;;;37.33;20.58;;;17.90;1.00;;;;;;6186331;22;20022;-91
2022/03/23 16:16:41;;;;;;;44.03;19.33;;;18.20;1.00;;;;;;6248136;22;20020;-91
2022/03/23 16:24:34;;;;;;;33.05;17.33;;;18.10;1.00;;;;;;6279332;22;20038;-91
2022/03/23 16:28:23;;;;;;;;;;;;;;;;;;;;;
2022/03/23 16:31:29;;;;;;;39.08;20.20;;;18.40;1.00;;;;;;6256806;22;20481;-88
2022/03/23 16:34:34;;;;;;;38.05;21.15;;;18.00;1.00;;;;;;6283466;22;20103;-90
2022/03/23 16:41:33;;;;;;;34.40;18.55;;;17.90;1.00;;;;;;6282509;22;20339;-91
2022/03/23 16:43:57;;;;;;;32.88;18.33;;;17.80;1.00;;;;;;6282330;22;20037;-92
2022/03/23 16:46:53;;;;;;;35.55;19.33;;;17.60;1.00;;;;;;6282091;22;20164;-92
2022/03/23 16:49:43;;;;;;;36.85;19.85;;;17.40;1.00;;;;;;6279031;22;20046;-90
2022/03/23 16:52:27;;;;;;;28.95;16.73;;;17.00;1.00;;;;;;6282747;22;20016;-90
2022/03/23 16:54:54;;;;;;;38.30;18.13;;;17.10;1.00;;;;;;6309995;22;20015;-91
2022/03/23 16:58:38;;;;;;;35.00;17.88;;;16.70;1.00;;;;;;6307116;22;20039;-90
2022/03/23 17:01:07;;;;;;;24.52;14.45;;;16.90;1.00;;;;;;6277984;22;20015;-89
2022/03/23 17:12:43;;;;;;;34.08;17.92;;;16.80;1.00;;;;;;6309431;22;20069;-90
2022/03/23 17:15:18;;;;;;;30.08;15.20;;;16.70;1.00;;;;;;6309294;22;20057;-89
2022/03/23 17:17:51;;;;;;;23.73;14.82;;;16.60;6.40;;;;;;6308930;22;20016;-93
2022/03/23 17:20:27;;;;;;;32.70;17.52;;;16.60;7.80;;;;;;6279373;22;20088;-91
2022/03/23 17:22:54;;;;;;;29.40;17.85;;;16.10;1.00;;;;;;6282059;22;20045;-88
2022/03/23 17:25:23;;;;;;;31.10;17.50;;;16.30;1.00;;;;;;6282293;22;20069;-90
2022/03/23 17:27:50;;;;;;;20.80;12.73;;;15.80;1.60;;;;;;6282377;22;20019;-93
2022/03/23 17:30:19;;;;;;;30.48;17.58;;;15.80;10.70;;;;;;6256577;22;20111;-94
2022/03/23 17:40:57;;;;;;;27.15;14.52;;;16.00;33.50;;;;;;6261627;22;20068;-90
2022/03/23 17:51:39;;;;;;;20.88;13.02;;;15.70;10.40;;;;;;6208244;23;20360;-90
2022/03/23 17:54:42;;;;;;;25.60;14.27;;;15.60;19.10;;;;;;6169934;23;20017;-92
2022/03/23 18:01:38;;;;;;;;;;;;;;;;;;;;;
2022/03/23 18:04:44;;;;;;;27.17;16.33;;;15.70;10.10;;;;;;6277106;22;20105;-89
2022/03/23 18:07:20;;;;;;;36.70;20.73;;;15.50;21.50;;;;;;6250167;22;20028;-90
2022/03/23 18:10:05;;;;;;;;;;;;;;;;;;;;;
2022/03/23 18:12:44;;;;;;;30.63;17.63;;;15.20;19.00;;;;;;6275365;22;20656;-90
2022/03/23 18:15:15;;;;;;;42.78;23.98;;;15.10;29.10;;;;;;6251251;22;20054;-89
2022/03/23 18:17:45;;;;;;;29.42;16.40;;;15.10;29.70;;;;;;6250188;22;20016;-89
2022/03/23 18:20:18;;;;;;;28.27;17.35;;;15.30;73.10;;;;;;6251262;22;20012;-89
2022/03/23 18:22:56;;;;;;;23.48;14.32;;;15.30;60.40;;;;;;6277448;22;20016;-89
2022/03/23 18:25:34;;;;;;;27.77;15.88;;;15.40;67.80;;;;;;6251856;22;20020;-93
2022/03/23 18:28:54;;;;;;;50.50;22.90;;;15.30;57.90;;;;;;6278036;22;20019;-91
2022/03/23 18:31:26;;;;;;;33.35;18.35;;;15.10;45.90;;;;;;6249807;22;20159;-91
2022/03/23 18:45:42;;;;;;;28.98;17.17;;;14.50;59.00;;;;;;6277291;22;20015;-91
2022/03/23 18:48:13;;;;;;;28.33;17.75;;;14.60;91.30;;;;;;6250790;22;20089;-91
2022/03/23 18:50:46;;;;;;;32.80;17.58;;;14.60;99.90;;;;;;6238867;23;20086;-90
2022/03/23 18:53:18;;;;;;;31.75;17.77;;;14.60;99.90;;;;;;6247592;23;20432;-91
2022/03/23 21:43:46;;;;;;;38.97;23.27;;;12.80;99.90;;;;;;6302036;22;20047;-90
2022/03/23 21:46:15;;;;;;;42.53;23.75;;;12.80;99.90;;;;;;6280577;22;20019;-89
2022/03/23 21:48:45;;;;;;;42.28;24.35;;;12.80;99.90;;;;;;6256761;22;20065;-88
2022/03/23 21:51:17;;;;;;;36.85;22.27;;;12.80;99.90;;;;;;6282128;22;20015;-89
2022/03/23 21:53:45;;;;;;;43.10;25.75;;;12.70;99.90;;;;;;6281244;22;20047;-89
2022/03/23 21:56:12;;;;;;;43.92;23.00;;;12.70;99.90;;;;;;6254852;22;20023;-89
2022/03/23 21:58:41;;;;;;;44.90;24.70;;;12.70;99.90;;;;;;6256258;22;20012;-89
2022/03/23 22:01:09;;;;;;;44.35;24.38;;;12.70;99.90;;;;;;6281463;22;20016;-89
2022/03/23 22:03:39;;;;;;;38.92;24.15;;;12.60;99.90;;;;;;6308503;22;20019;-89
2022/03/23 22:06:14;;;;;;;43.60;24.90;;;12.50;99.90;;;;;;6257090;22;20023;-89
2022/03/23 22:08:46;;;;;;;42.92;25.20;;;12.50;99.90;;;;;;6281249;22;20098;-90
2022/03/23 22:11:15;;;;;;;45.30;24.20;;;12.50;99.90;;;;;;6281592;22;20019;-89
2022/03/23 22:13:45;;;;;;;40.90;23.77;;;12.50;99.90;;;;;;6255711;22;20319;-89
2022/03/23 22:16:15;;;;;;;45.95;25.85;;;12.50;99.90;;;;;;6282265;22;20086;-89
2022/03/23 22:18:45;;;;;;;44.40;24.98;;;12.40;99.90;;;;;;6281053;22;20015;-90
2022/03/23 22:21:23;;;;;;;42.78;22.90;;;12.40;99.90;;;;;;6281208;22;20023;-89
2022/03/23 22:23:57;;;;;;;45.80;25.50;;;12.40;99.90;;;;;;6282090;22;20026;-90
2022/03/23 22:26:34;;;;;;;47.55;27.02;;;12.30;99.90;;;;;;6256107;22;20019;-90
2022/03/23 22:29:02;;;;;;;44.78;24.38;;;12.30;99.90;;;;;;6281929;22;20497;-90
2022/03/23 22:31:32;;;;;;;44.33;25.45;;;12.30;99.90;;;;;;6281715;22;20019;-90
2022/03/23 22:34:26;;;;;;;39.70;22.25;;;12.20;99.90;;;;;;6256734;22;20462;-90
2022/03/23 22:37:18;;;;;;;41.55;24.02;;;12.20;99.90;;;;;;6282575;22;20449;-89
2022/03/23 22:39:48;;;;;;;46.08;25.92;;;12.20;99.90;;;;;;6281058;22;20023;-91
2022/03/23 22:42:19;;;;;;;42.67;24.98;;;12.20;99.90;;;;;;6282738;22;20102;-89
2022/03/23 22:44:55;;;;;;;45.97;23.45;;;12.20;99.90;;;;;;6257079;22;20328;-91
2022/03/23 22:47:23;;;;;;;43.00;24.20;;;12.10;99.90;;;;;;6280878;22;20097;-89
2022/03/23 22:49:52;;;;;;;40.47;23.27;;;12.10;99.90;;;;;;6281145;22;20111;-90
2022/03/23 22:52:25;;;;;;;42.58;24.77;;;12.10;99.90;;;;;;6281553;22;20088;-90
2022/03/23 22:54:55;;;;;;;42.65;24.33;;;12.10;99.90;;;;;;6231777;22;20030;-89
2022/03/23 22:57:25;;;;;;;45.00;23.90;;;12.00;99.90;;;;;;6309084;22;20019;-90
2022/03/23 22:59:58;;;;;;;43.35;25.33;;;12.00;99.90;;;;;;6309592;22;20020;-91
2022/03/23 23:02:35;;;;;;;43.25;24.77;;;12.00;99.90;;;;;;6262657;22;20094;-89
2022/03/23 23:05:05;;;;;;;46.97;23.75;;;12.00;99.90;;;;;;6255004;22;20450;-89
2022/03/23 23:07:48;;;;;;;43.47;25.17;;;11.90;99.90;;;;;;6309612;22;20011;-89
2022/03/23 23:10:36;;;;;;;46.25;25.10;;;11.90;99.90;;;;;;6262727;22;20012;-90
2022/03/23 23:13:10;;;;;;;41.42;22.63;;;11.90;99.90;;;;;;6281259;22;20023;-89
2022/03/23 23:15:40;;;;;;;43.00;24.30;;;11.90;99.90;;;;;;6308323;22;20090;-90
2022/03/23 23:18:10;;;;;;;41.35;24.73;;;11.80;99.90;;;;;;6280961;22;20019;-91
2022/03/23 23:20:42;;;;;;;44.67;26.08;;;11.80;99.90;;;;;;6308155;22;20015;-90
2022/03/23 23:23:12;;;;;;;47.85;26.48;;;11.80;99.90;;;;;;6307887;22;20026;-89
2022/03/23 23:25:45;;;;;;;44.55;24.88;;;11.80;99.90;;;;;;6308657;22;20038;-88
2022/03/23 23:28:44;;;;;;;45.17;25.35;;;11.80;99.90;;;;;;6280875;22;20461;-88
2022/03/23 23:31:14;;;;;;;47.33;24.70;;;11.80;99.90;;;;;;6280940;22;20039;-90
2022/03/23 23:33:45;;;;;;;46.25;26.52;;;11.70;99.90;;;;;;6280196;22;20015;-89
2022/03/23 23:36:13;;;;;;;46.38;26.02;;;11.70;99.90;;;;;;6281165;22;20099;-90
2022/03/23 23:38:44;;;;;;;45.88;25.25;;;11.70;99.90;;;;;;6281162;22;20394;-89
2022/03/23 23:41:22;;;;;;;45.95;26.17;;;11.60;99.90;;;;;;6256657;22;20019;-89
2022/03/23 23:43:58;;;;;;;46.13;25.77;;;11.60;99.90;;;;;;6280460;22;20023;-90
2022/03/23 23:46:31;;;;;;;47.50;26.90;;;11.60;99.90;;;;;;6255670;22;20034;-91
2022/03/23 23:49:19;;;;;;;49.85;27.33;;;11.60;99.90;;;;;;6256641;22;20057;-90
2022/03/23 23:51:46;;;;;;;51.33;27.83;;;11.50;99.90;;;;;;6280317;22;20510;-89
2022/03/23 23:54:19;;;;;;;43.50;25.33;;;11.50;99.90;;;;;;6282436;22;20037;-90
2022/03/23 23:56:46;;;;;;;51.50;26.80;;;11.50;99.90;;;;;;6255314;22;20022;-90
2022/03/23 23:59:21;;;;;;;47.85;26.17;;;11.50;99.90;;;;;;6308409;22;20015;-89
